This is the latest recevied weather packets stored in our database for station/object N9BID. If no packets are shown the sender has not sent any weather packets the latest 10 day(s).
| Time | Temp. | Humidity | Pressure | Rain* | Wind** | Luminosity | Snow |
|---|---|---|---|---|---|---|---|
| 1777639483 | 2.22° C | 71% | 1009.8 hPa | 0 mm | - | 117 W/m² | - |
| 1777639179 | 1.67° C | 72% | 1009.8 hPa | 0 mm | - | 77 W/m² | - |
| 1777638875 | 1.67° C | 74% | 1009.7 hPa | 0 mm | - | 79 W/m² | - |
| 1777638571 | 1.67° C | 74% | 1009.7 hPa | 0 mm | - | 82 W/m² | - |
| 1777638267 | 1.11° C | 77% | 1009.5 hPa | 0 mm | - | 76 W/m² | - |
| 1777637963 | 0.56° C | 78% | 1009.6 hPa | 0 mm | - | 62 W/m² | - |
| 1777637655 | 0.56° C | 80% | 1009.4 hPa | 0 mm | - | 58 W/m² | - |
| 1777637352 | 0° C | 81% | 1009.4 hPa | 0 mm | - | 37 W/m² | - |
| 1777637049 | 0° C | 82% | 1009.4 hPa | 0 mm | - | 34 W/m² | - |
| 1777636744 | 0° C | 82% | 1009.4 hPa | 0 mm | - | 32 W/m² | - |
| 1777636441 | 0° C | 82% | 1009.3 hPa | 0 mm | - | 29 W/m² | - |
| 1777636136 | 0° C | 82% | 1009.3 hPa | 0 mm | - | 28 W/m² | - |
| 1777635832 | -0.56° C | 83% | 1009.3 hPa | 0 mm | - | 26 W/m² | - |
| 1777635529 | -0.56° C | 83% | 1009.1 hPa | 0 mm | - | 23 W/m² | - |
| 1777635225 | -0.56° C | 82% | 1009.1 hPa | 0 mm | - | 21 W/m² | - |
| 1777634922 | -0.56° C | 82% | 1009 hPa | 0 mm | - | 18 W/m² | - |
| 1777634619 | -1.11° C | 84% | 1009.2 hPa | 0 mm | - | 17 W/m² | - |
| 1777634317 | -1.11° C | 85% | 1008.9 hPa | 0 mm | - | 14 W/m² | - |
| 1777634012 | -1.67° C | 86% | 1009.1 hPa | 0 mm | - | 12 W/m² | - |
| 1777633709 | -1.67° C | 86% | 1008.8 hPa | 0 mm | - | 10 W/m² | - |
| 1777633408 | -1.67° C | 86% | 1008.9 hPa | 0 mm | - | 6 W/m² | - |
| 1777633105 | -1.67° C | 85% | 1008.7 hPa | 0 mm | - | 4 W/m² | - |
| 1777632801 | -1.11° C | 85% | 1008.9 hPa | 0 mm | - | 2 W/m² | - |
| 1777632497 | -1.11° C | 85% | 1008.8 hPa | 0 mm | - | 0 W/m² | - |
| 1777632195 | -1.11° C | 84% | 1008.9 hPa | 0 mm | - | 0 W/m² | - |
* Rain latest hour (hover to see other rain measurements)
** Current wind speed in m/s (hover to see current wind gust speed)